createdAt,value
2017-11-09T00:03:22.037Z,51.50
2017-11-09T00:09:59.455Z,51.23
2017-11-09T00:12:28.348Z,53.10
2017-11-09T00:14:55.944Z,57.40
2017-11-09T00:17:24.548Z,59.93
2017-11-09T00:19:52.912Z,57.40
2017-11-09T00:22:21.287Z,53.23
2017-11-09T00:24:49.060Z,52.63
2017-11-09T00:27:16.784Z,48.40
2017-11-09T00:29:46.480Z,47.40
2017-11-09T00:32:28.533Z,45.67
2017-11-09T00:35:03.405Z,44.87
2017-11-09T00:58:36.529Z,45.20
2017-11-09T01:01:04.211Z,48.30
2017-11-09T01:03:35.998Z,43.40
2017-11-09T01:06:05.196Z,47.00
2017-11-09T01:22:21.821Z,46.87
2017-11-09T01:24:49.433Z,47.47
2017-11-09T01:27:17.027Z,48.10
2017-11-09T01:29:45.336Z,50.30
2017-11-09T01:32:13.421Z,50.20
2017-11-09T01:34:41.010Z,53.23
2017-11-09T01:37:08.740Z,49.03
2017-11-09T01:39:36.453Z,50.60
2017-11-09T01:42:04.110Z,53.53
2017-11-09T01:44:33.614Z,49.90
2017-11-09T01:47:01.358Z,50.20
2017-11-09T01:49:30.334Z,47.93
2017-11-09T01:51:57.903Z,42.80
2017-11-09T01:54:25.559Z,42.23
2017-11-09T01:57:01.238Z,40.37
2017-11-09T01:59:40.054Z,41.47
2017-11-09T02:02:07.656Z,44.50
2017-11-09T02:04:35.355Z,43.60
2017-11-09T02:07:02.951Z,44.53
2017-11-09T02:09:30.581Z,43.70
2017-11-09T02:11:58.214Z,41.10
2017-11-09T02:14:25.819Z,40.80
2017-11-09T02:16:53.447Z,40.70
2017-11-09T02:19:21.021Z,41.50
2017-11-09T02:21:48.844Z,41.50
2017-11-09T02:24:16.621Z,38.20
2017-11-09T02:26:44.286Z,40.73
2017-11-09T02:29:11.980Z,40.27
2017-11-09T02:31:39.689Z,41.80
2017-11-09T02:34:11.957Z,42.50
2017-11-09T02:36:39.759Z,42.23
2017-11-09T02:39:08.361Z,39.90
2017-11-09T02:41:35.946Z,41.40
2017-11-09T02:44:03.692Z,44.37
2017-11-09T02:46:31.474Z,42.80
2017-11-09T02:49:02.150Z,41.30
2017-11-09T03:13:02.855Z,44.63
2017-11-09T03:15:30.514Z,41.20
2017-11-09T03:17:58.085Z,45.67
2017-11-09T03:20:25.786Z,49.57
2017-11-09T03:22:53.454Z,47.93
2017-11-09T03:25:21.082Z,44.93
2017-11-09T03:27:48.779Z,44.03
2017-11-09T03:30:21.326Z,40.90
2017-11-09T03:32:48.993Z,43.03
2017-11-09T03:42:36.802Z,39.40
2017-11-09T03:45:04.495Z,39.83
2017-11-09T03:47:41.179Z,39.70
2017-11-09T03:50:08.748Z,35.57
2017-11-09T03:52:37.260Z,37.27
2017-11-09T03:55:04.969Z,37.80
2017-11-09T03:57:35.183Z,37.47
2017-11-09T04:00:04.491Z,35.83
2017-11-09T04:02:32.179Z,33.27
2017-11-09T04:04:59.944Z,36.30
2017-11-09T04:07:27.565Z,36.03
2017-11-09T04:09:55.193Z,37.03
2017-11-09T04:12:22.839Z,37.07
2017-11-09T04:14:50.501Z,33.13
2017-11-09T04:17:18.786Z,32.23
2017-11-09T04:19:46.449Z,32.87
2017-11-09T04:22:14.479Z,31.47
2017-11-09T04:24:42.031Z,33.43
2017-11-09T04:27:09.608Z,34.33
2017-11-09T04:29:37.333Z,37.93
2017-11-09T04:32:32.059Z,33.60
2017-11-09T04:34:59.731Z,36.43
2017-11-09T04:37:27.421Z,36.40
2017-11-09T04:40:11.097Z,37.83
2017-11-09T04:43:01.728Z,33.77
2017-11-09T04:45:29.447Z,38.70
2017-11-09T05:02:32.342Z,38.67
2017-11-09T05:05:21.139Z,39.83
2017-11-09T05:07:48.930Z,41.30
2017-11-09T05:13:44.651Z,33.07
2017-11-09T05:16:24.424Z,37.80
2017-11-09T05:19:02.533Z,36.67
2017-11-09T05:21:30.042Z,36.50
2017-11-09T05:24:01.510Z,34.73
2017-11-09T05:26:29.091Z,32.67
2017-11-09T05:28:56.623Z,37.23
2017-11-09T05:31:24.204Z,34.63
2017-11-09T05:33:51.751Z,38.37
2017-11-09T05:36:19.335Z,36.07
2017-11-09T05:38:46.902Z,38.10
2017-11-09T05:41:15.256Z,38.17
2017-11-09T05:43:42.988Z,33.97
2017-11-09T05:46:10.579Z,39.70
2017-11-09T05:48:38.380Z,36.73
2017-11-09T05:51:05.996Z,32.80
2017-11-09T05:53:33.557Z,36.50
2017-11-09T05:56:01.103Z,39.13
2017-11-09T05:58:28.651Z,36.17
2017-11-09T06:00:56.291Z,36.77
2017-11-09T06:03:24.169Z,35.80
2017-11-09T06:05:51.978Z,36.60
2017-11-09T06:08:19.663Z,33.00
2017-11-09T06:10:47.198Z,36.07
2017-11-09T06:13:14.755Z,36.37
2017-11-09T06:15:42.495Z,36.03
2017-11-09T06:18:10.079Z,33.00
2017-11-09T06:20:37.656Z,38.60
2017-11-09T06:23:05.291Z,40.00
2017-11-09T06:25:32.832Z,35.53
2017-11-09T06:28:00.451Z,35.80
2017-11-09T06:30:28.109Z,33.67
2017-11-09T06:32:55.731Z,36.13
2017-11-09T06:35:23.274Z,37.30
2017-11-09T06:37:50.841Z,35.80
2017-11-09T06:40:18.358Z,36.13
2017-11-09T06:42:45.995Z,34.03
2017-11-09T06:45:13.642Z,31.93
2017-11-09T06:47:41.383Z,33.80
2017-11-09T06:50:08.903Z,30.67
2017-11-09T06:52:36.467Z,28.50
2017-11-09T06:55:04.043Z,30.87
2017-11-09T06:57:31.566Z,31.00
2017-11-09T06:59:59.125Z,35.37
2017-11-09T07:02:26.741Z,37.50
2017-11-09T07:04:54.291Z,34.57
2017-11-09T07:07:21.817Z,36.30
2017-11-09T07:09:49.447Z,38.50
2017-11-09T07:12:17.018Z,40.53
2017-11-09T07:14:44.560Z,37.60
2017-11-09T07:17:12.141Z,39.27
2017-11-09T07:19:40.819Z,37.47
2017-11-09T07:22:08.395Z,36.13
2017-11-09T07:24:36.000Z,33.33
2017-11-09T07:27:03.583Z,34.47
2017-11-09T07:29:31.114Z,30.10
2017-11-09T07:31:58.712Z,28.93
2017-11-09T07:34:26.488Z,29.77
2017-11-09T07:36:54.039Z,30.57
2017-11-09T07:39:21.611Z,34.63
2017-11-09T07:41:49.179Z,31.90
2017-11-09T07:44:16.702Z,30.23
2017-11-09T07:46:44.295Z,31.00
2017-11-09T07:49:11.842Z,30.67
2017-11-09T07:51:39.610Z,32.17
2017-11-09T07:54:07.226Z,32.83
2017-11-09T07:56:34.979Z,31.00
2017-11-09T07:59:02.539Z,30.50
2017-11-09T08:01:30.093Z,29.50
2017-11-09T08:03:57.592Z,31.90
2017-11-09T08:06:25.160Z,35.00
2017-11-09T08:08:52.741Z,32.50
2017-11-09T08:11:20.266Z,30.53
2017-11-09T08:13:48.055Z,32.07
2017-11-09T08:16:15.664Z,31.40
2017-11-09T08:18:44.065Z,30.93
2017-11-09T08:21:11.597Z,41.00
2017-11-09T08:23:39.221Z,35.10
2017-11-09T08:28:41.660Z,35.13
2017-11-09T08:31:10.944Z,33.67
2017-11-09T08:33:40.192Z,31.90
2017-11-09T08:36:07.974Z,31.90
2017-11-09T08:38:35.620Z,32.60
2017-11-09T08:41:03.163Z,34.10
2017-11-09T08:43:30.692Z,30.10
2017-11-09T08:45:58.297Z,27.97
2017-11-09T08:48:26.120Z,28.93
2017-11-09T08:50:53.886Z,30.20
2017-11-09T08:53:21.500Z,30.17
2017-11-09T08:55:49.120Z,29.30
2017-11-09T08:58:17.500Z,27.60
2017-11-09T09:00:45.064Z,29.90
2017-11-09T09:03:12.851Z,29.47
2017-11-09T09:05:40.697Z,28.03
2017-11-09T09:08:08.292Z,27.60
2017-11-09T09:10:36.596Z,27.30
2017-11-09T09:16:54.249Z,32.10
2017-11-09T09:19:43.769Z,32.40
2017-11-09T09:32:19.227Z,32.63
2017-11-09T09:38:38.979Z,29.80
2017-11-09T09:41:06.725Z,30.50
2017-11-09T09:43:34.590Z,32.53
2017-11-09T09:46:02.195Z,36.30
2017-11-09T09:48:29.762Z,34.20
2017-11-09T09:50:59.020Z,32.73
2017-11-09T09:53:26.612Z,33.87
2017-11-09T09:55:55.765Z,35.13
2017-11-09T09:58:25.961Z,33.30
2017-11-09T10:00:53.801Z,35.00
2017-11-09T10:03:23.937Z,33.43
2017-11-09T10:05:51.487Z,34.20
2017-11-09T10:08:21.192Z,36.03
2017-11-09T10:10:48.819Z,31.60
2017-11-09T10:13:19.026Z,32.73
2017-11-09T10:15:46.651Z,34.20
2017-11-09T10:18:16.915Z,32.83
2017-11-09T10:20:44.475Z,33.57
2017-11-09T10:23:12.819Z,34.67
2017-11-09T10:25:41.399Z,33.67
2017-11-09T10:28:11.276Z,31.70
2017-11-09T10:30:38.864Z,31.37
2017-11-09T10:33:12.912Z,31.73
2017-11-09T10:35:41.073Z,31.17
2017-11-09T10:38:08.628Z,30.50
2017-11-09T10:40:37.756Z,30.27
2017-11-09T10:43:05.376Z,29.43
2017-11-09T10:45:37.674Z,29.23
2017-11-09T10:48:05.284Z,27.00
2017-11-09T10:50:32.883Z,28.40
2017-11-09T10:53:00.432Z,28.40
2017-11-09T10:55:28.057Z,29.07
2017-11-09T10:57:55.761Z,28.73
2017-11-09T11:00:30.069Z,28.93
2017-11-09T11:02:57.626Z,29.67
2017-11-09T11:05:25.841Z,29.37
2017-11-09T11:07:55.056Z,29.37
2017-11-09T11:10:23.525Z,28.37
2017-11-09T11:12:51.411Z,26.67
2017-11-09T11:15:20.045Z,26.27
2017-11-09T11:17:47.577Z,26.93
2017-11-09T11:20:15.298Z,25.20
2017-11-09T11:22:42.916Z,25.50
2017-11-09T11:25:12.096Z,22.63
2017-11-09T11:27:39.707Z,23.07
2017-11-09T11:30:09.380Z,26.63
2017-11-09T11:32:37.139Z,24.60
2017-11-09T11:35:04.660Z,24.20
2017-11-09T11:37:32.238Z,24.23
2017-11-09T11:40:01.544Z,22.90
2017-11-09T11:42:30.645Z,27.70
2017-11-09T11:44:58.268Z,25.90
2017-11-09T11:50:15.651Z,19.10
2017-11-09T11:52:49.228Z,18.23
2017-11-09T11:58:02.792Z,20.60
2017-11-09T12:00:35.770Z,20.83
2017-11-09T12:03:22.489Z,21.20
2017-11-09T12:06:08.395Z,22.50
2017-11-09T12:15:02.243Z,22.83
2017-11-09T12:17:30.507Z,24.10
2017-11-09T12:19:58.045Z,20.47
2017-11-09T12:22:28.464Z,20.07
2017-11-09T12:24:56.043Z,17.97
2017-11-09T12:27:24.232Z,18.33
2017-11-09T12:29:52.030Z,18.10
2017-11-09T12:32:21.299Z,18.10
2017-11-09T12:34:49.045Z,23.10
2017-11-09T12:37:16.806Z,25.40
2017-11-09T12:39:45.855Z,26.90
2017-11-09T12:42:14.433Z,23.07
2017-11-09T12:44:42.843Z,21.00
2017-11-09T12:47:11.639Z,23.27
2017-11-09T12:49:39.390Z,20.60
2017-11-09T12:52:07.194Z,20.47
2017-11-09T12:54:34.814Z,20.20
2017-11-09T12:57:02.567Z,18.97
2017-11-09T12:59:30.880Z,19.90
2017-11-09T13:01:58.781Z,21.37
2017-11-09T13:04:27.382Z,20.87
2017-11-09T13:06:54.987Z,20.43
2017-11-09T13:09:22.602Z,21.40
2017-11-09T13:11:50.821Z,20.47
2017-11-09T13:14:18.778Z,20.87
2017-11-09T13:16:46.565Z,19.70
2017-11-09T13:19:14.282Z,16.73
2017-11-09T13:21:42.791Z,15.57
2017-11-09T13:24:10.401Z,13.70
2017-11-09T13:26:37.931Z,13.20
2017-11-09T13:29:06.525Z,12.13
2017-11-09T13:31:35.079Z,10.90
2017-11-09T13:34:03.145Z,9.80
2017-11-09T13:36:31.542Z,10.13
2017-11-09T13:38:59.104Z,10.97
2017-11-09T13:41:26.973Z,10.57
2017-11-09T13:43:55.468Z,11.10
2017-11-09T13:46:23.037Z,10.83
2017-11-09T13:48:51.173Z,10.60
2017-11-09T13:51:18.728Z,11.27
2017-11-09T13:53:46.340Z,11.87
2017-11-09T13:56:13.978Z,10.60
2017-11-09T13:58:42.236Z,10.67
2017-11-09T14:01:09.944Z,11.23
2017-11-09T14:03:37.583Z,10.30
2017-11-09T14:06:06.907Z,11.20
2017-11-09T14:08:34.653Z,10.53
2017-11-09T14:11:02.444Z,13.33
2017-11-09T14:13:31.238Z,11.23
2017-11-09T14:15:59.351Z,10.50
2017-11-09T14:18:27.127Z,11.00
2017-11-09T14:20:54.733Z,10.93
2017-11-09T14:23:24.523Z,10.47
2017-11-09T14:25:53.657Z,9.40
2017-11-09T14:44:38.556Z,10.43
2017-11-09T14:47:15.193Z,9.60
2017-11-09T14:49:44.034Z,13.47
2017-11-09T14:52:15.252Z,12.33
2017-11-09T14:54:46.854Z,12.70
2017-11-09T14:57:19.885Z,12.63
2017-11-09T14:59:47.498Z,13.40
2017-11-09T15:02:15.250Z,11.60
2017-11-09T15:04:42.842Z,11.80
2017-11-09T15:07:10.486Z,13.40
2017-11-09T15:09:38.173Z,16.80
2017-11-09T15:12:07.560Z,14.50
2017-11-09T15:14:35.232Z,17.43
2017-11-09T15:17:04.140Z,19.00
2017-11-09T15:19:31.690Z,20.03
2017-11-09T15:21:59.247Z,17.93
2017-11-09T15:24:27.092Z,16.43
2017-11-09T15:26:54.760Z,14.97
2017-11-09T15:29:22.599Z,16.00
2017-11-09T15:31:51.813Z,15.33
2017-11-09T15:34:19.470Z,16.53
2017-11-09T15:36:47.720Z,17.87
2017-11-09T15:39:15.387Z,23.10
2017-11-09T15:41:42.988Z,19.67
2017-11-09T15:44:10.820Z,17.67
2017-11-09T15:46:38.472Z,18.80
2017-11-09T15:49:06.143Z,16.40
2017-11-09T15:51:33.951Z,18.47
2017-11-09T15:54:01.685Z,20.37
2017-11-09T15:56:29.346Z,22.37
2017-11-09T15:58:57.951Z,21.83
2017-11-09T16:01:25.614Z,21.20
2017-11-09T16:03:53.200Z,20.50
2017-11-09T16:06:23.554Z,22.67
2017-11-09T16:08:52.266Z,23.87
2017-11-09T16:11:23.916Z,21.00
2017-11-09T16:13:52.172Z,21.30
2017-11-09T16:16:19.881Z,23.90
2017-11-09T16:18:48.000Z,22.43
2017-11-09T16:21:17.171Z,24.57
2017-11-09T16:23:44.794Z,25.93
2017-11-09T16:26:12.398Z,23.33
2017-11-09T16:28:40.017Z,21.93
2017-11-09T16:31:07.779Z,22.27
2017-11-09T16:33:38.452Z,21.13
2017-11-09T16:36:10.400Z,20.60
2017-11-09T16:38:37.989Z,20.17
2017-11-09T16:41:05.573Z,20.13
2017-11-09T16:43:40.444Z,19.00
2017-11-09T16:46:08.140Z,15.30
2017-11-09T16:48:35.905Z,17.40
2017-11-09T16:51:04.385Z,19.20
2017-11-09T16:53:32.190Z,17.47
2017-11-09T16:55:59.988Z,17.00
2017-11-09T16:58:31.487Z,17.47
2017-11-09T17:00:59.131Z,17.97
2017-11-09T17:03:26.957Z,17.93
2017-11-09T17:05:54.617Z,18.57
2017-11-09T17:08:22.856Z,20.90
2017-11-09T17:10:50.438Z,20.50
2017-11-09T17:13:18.003Z,18.73
2017-11-09T17:15:45.625Z,20.00
2017-11-09T17:18:14.202Z,18.60
2017-11-09T17:20:41.766Z,19.13
2017-11-09T17:23:09.479Z,19.43
2017-11-09T17:25:37.141Z,17.23
2017-11-09T17:28:04.954Z,17.70
2017-11-09T17:30:33.788Z,17.60
2017-11-09T17:33:02.466Z,18.10
2017-11-09T17:35:30.168Z,18.20
2017-11-09T17:37:57.826Z,20.03
2017-11-09T17:40:26.779Z,19.40
2017-11-09T17:42:54.987Z,20.67
2017-11-09T17:45:22.821Z,19.00
2017-11-09T17:47:50.424Z,21.90
2017-11-09T17:50:18.013Z,19.87
2017-11-09T17:52:46.072Z,19.73
2017-11-09T17:55:13.935Z,20.70
2017-11-09T17:57:41.512Z,18.03
2017-11-09T18:00:15.205Z,18.47
2017-11-09T18:02:43.000Z,18.47
2017-11-09T18:05:10.665Z,19.03
2017-11-09T18:07:38.331Z,20.77
2017-11-09T18:10:06.150Z,23.40
2017-11-09T18:12:33.944Z,21.60
2017-11-09T18:15:01.607Z,18.93
2017-11-09T18:17:29.221Z,19.27
2017-11-09T18:19:57.024Z,18.00
2017-11-09T18:22:28.505Z,15.83
2017-11-09T18:24:56.749Z,17.10
2017-11-09T18:27:24.671Z,16.67
2017-11-09T18:29:52.320Z,14.90
2017-11-09T18:32:20.088Z,17.33
2017-11-09T18:34:47.951Z,18.40
2017-11-09T18:37:15.760Z,17.80
2017-11-09T18:39:43.412Z,18.30
2017-11-09T18:42:10.968Z,17.73
2017-11-09T18:44:38.512Z,18.07
2017-11-09T18:47:06.107Z,18.70
2017-11-09T18:49:34.486Z,19.30
2017-11-09T18:52:02.096Z,18.50
2017-11-09T18:54:29.797Z,21.87
2017-11-09T18:56:57.468Z,20.17
2017-11-09T18:59:25.249Z,19.30
2017-11-09T19:01:52.866Z,18.93
2017-11-09T19:04:20.771Z,17.50
2017-11-09T19:06:48.456Z,16.83
2017-11-09T19:09:19.066Z,16.27
2017-11-09T19:11:46.759Z,18.30
2017-11-09T19:14:24.084Z,18.30
2017-11-09T19:16:51.696Z,18.83
2017-11-09T19:19:19.293Z,23.90
2017-11-09T19:21:46.912Z,27.90
2017-11-09T19:24:14.791Z,26.60
2017-11-09T19:26:43.430Z,28.27
2017-11-09T19:29:12.419Z,29.87
2017-11-09T19:31:44.595Z,30.73
2017-11-09T19:34:13.250Z,27.93
2017-11-09T19:36:40.929Z,31.90
2017-11-09T19:39:08.552Z,28.20
2017-11-09T19:41:36.221Z,29.70
2017-11-09T19:44:05.251Z,29.92
2017-11-09T19:46:32.848Z,30.65
2017-11-09T19:49:00.672Z,31.33
2017-11-09T19:51:28.404Z,30.27
2017-11-09T19:53:56.092Z,31.37
2017-11-09T19:56:23.633Z,30.50
2017-11-09T19:58:52.208Z,34.10
2017-11-09T20:01:20.827Z,36.23
2017-11-09T20:03:48.534Z,35.60
2017-11-09T20:06:16.145Z,37.10
2017-11-09T20:08:43.772Z,40.90
2017-11-09T20:11:11.383Z,44.90
2017-11-09T20:13:38.967Z,49.43
2017-11-09T20:16:06.601Z,40.47
2017-11-09T20:18:34.202Z,41.00
2017-11-09T20:21:01.741Z,43.20
2017-11-09T20:23:32.835Z,41.60
2017-11-09T20:26:00.807Z,39.10
2017-11-09T20:28:28.919Z,39.67
2017-11-09T20:30:56.538Z,41.97
2017-11-09T20:33:24.163Z,37.60
2017-11-09T20:35:51.794Z,41.20
2017-11-09T20:38:19.453Z,39.03
2017-11-09T20:41:01.174Z,42.27
2017-11-09T20:43:28.816Z,41.60
2017-11-09T20:45:56.374Z,40.73
2017-11-09T20:48:23.952Z,43.13
2017-11-09T20:50:51.637Z,43.03
2017-11-09T20:53:19.323Z,47.20
2017-11-09T20:55:47.219Z,46.30
2017-11-09T20:58:14.878Z,45.60
2017-11-09T21:00:42.468Z,45.57
2017-11-09T21:03:10.042Z,42.80
2017-11-09T21:05:37.642Z,42.50
2017-11-09T21:08:05.218Z,48.27
2017-11-09T21:10:33.550Z,51.07
2017-11-09T21:13:01.195Z,58.97
2017-11-09T21:15:28.873Z,57.20
2017-11-09T21:17:56.490Z,50.73
2017-11-09T21:20:24.105Z,50.20
2017-11-09T21:22:51.783Z,60.27
2017-11-09T21:25:20.165Z,57.70
2017-11-09T21:27:47.827Z,45.00
2017-11-09T21:30:15.922Z,50.70
2017-11-09T21:32:43.733Z,53.70
2017-11-09T21:35:11.642Z,43.80
2017-11-09T21:37:39.330Z,38.00
2017-11-09T21:40:06.925Z,35.20
2017-11-09T21:42:34.564Z,35.50
2017-11-09T21:45:02.295Z,32.70
2017-11-09T21:47:29.919Z,31.50
2017-11-09T21:49:58.062Z,29.37
2017-11-09T21:52:25.690Z,29.20
2017-11-09T21:54:53.368Z,30.00
2017-11-09T21:57:20.992Z,32.20
2017-11-09T21:59:48.641Z,34.87
2017-11-09T22:02:17.290Z,35.70
2017-11-09T22:04:45.135Z,35.83
2017-11-09T22:07:12.756Z,36.00
2017-11-09T22:09:41.255Z,32.13
2017-11-09T22:12:09.508Z,33.67
2017-11-09T22:14:37.592Z,35.30
2017-11-09T22:17:05.374Z,36.20
2017-11-09T22:19:33.060Z,34.83
2017-11-09T22:22:00.884Z,33.37
2017-11-09T22:24:28.623Z,34.43
2017-11-09T22:26:56.465Z,32.57
2017-11-09T22:29:24.167Z,34.50
2017-11-09T22:31:51.897Z,32.93
2017-11-09T22:34:19.734Z,34.20
2017-11-09T22:36:47.713Z,33.00
2017-11-09T22:39:15.431Z,31.30
2017-11-09T22:41:43.222Z,31.57
2017-11-09T22:44:10.906Z,31.57
2017-11-09T22:46:41.387Z,30.53
2017-11-09T22:49:09.501Z,30.67
2017-11-09T22:51:44.069Z,30.60
2017-11-09T22:54:12.724Z,29.23
2017-11-09T22:56:40.593Z,28.00
2017-11-09T22:59:08.269Z,27.57
2017-11-09T23:01:36.127Z,26.33
2017-11-09T23:04:05.408Z,26.40
2017-11-09T23:09:18.795Z,25.13
2017-11-09T23:11:46.423Z,25.40
2017-11-09T23:14:14.244Z,25.37
2017-11-09T23:16:42.264Z,26.43
2017-11-09T23:19:09.936Z,24.57
2017-11-09T23:21:37.607Z,24.50
2017-11-09T23:24:05.320Z,24.20
2017-11-09T23:26:33.047Z,23.50
2017-11-09T23:29:00.976Z,24.80
2017-11-09T23:31:28.840Z,23.87
2017-11-09T23:33:58.172Z,25.60
2017-11-09T23:36:27.430Z,24.27
2017-11-09T23:38:56.871Z,23.00
2017-11-09T23:41:29.332Z,24.00
2017-11-09T23:43:59.161Z,24.80
2017-11-09T23:46:29.347Z,24.07
2017-11-09T23:48:58.076Z,21.33
2017-11-09T23:51:27.294Z,21.93
2017-11-09T23:53:57.148Z,23.07
2017-11-09T23:56:26.208Z,22.13
2017-11-09T23:58:55.437Z,19.53
